createdAt,value
2017-10-26T00:02:03.310Z,101653.22
2017-10-26T00:04:30.729Z,101651.30
2017-10-26T00:06:58.119Z,101648.49
2017-10-26T00:09:25.511Z,101643.81
2017-10-26T00:11:52.995Z,101645.94
2017-10-26T00:14:20.455Z,101651.74
2017-10-26T00:16:47.863Z,101656.87
2017-10-26T00:19:15.263Z,101667.22
2017-10-26T00:21:42.665Z,101666.01
2017-10-26T00:24:10.058Z,101654.19
2017-10-26T00:26:37.535Z,101643.58
2017-10-26T00:29:04.989Z,101650.66
2017-10-26T00:31:32.403Z,101650.97
2017-10-26T00:33:59.803Z,101653.64
2017-10-26T00:36:27.203Z,101662.19
2017-10-26T00:38:54.599Z,101665.80
2017-10-26T00:41:22.003Z,101664.00
2017-10-26T00:43:49.396Z,101658.02
2017-10-26T00:46:16.878Z,101662.12
2017-10-26T00:48:44.348Z,101653.95
2017-10-26T00:51:11.746Z,101651.97
2017-10-26T00:53:39.138Z,101652.30
2017-10-26T00:56:06.535Z,101646.93
2017-10-26T00:58:33.958Z,101640.61
2017-10-26T01:01:01.388Z,101644.64
2017-10-26T01:03:28.881Z,101646.70
2017-10-26T01:05:56.326Z,101648.77
2017-10-26T01:08:23.738Z,101649.95
2017-10-26T01:10:51.127Z,101651.09
2017-10-26T01:13:18.594Z,101641.44
2017-10-26T01:15:46.054Z,101649.58
2017-10-26T01:18:13.459Z,101653.69
2017-10-26T01:20:40.847Z,101651.89
2017-10-26T01:23:08.319Z,101651.46
2017-10-26T01:25:35.719Z,101650.70
2017-10-26T01:28:03.134Z,101650.07
2017-10-26T01:30:30.590Z,101651.59
2017-10-26T01:32:57.992Z,101647.69
2017-10-26T01:35:25.390Z,101651.70
2017-10-26T01:37:52.846Z,101651.58
2017-10-26T01:40:20.311Z,101657.06
2017-10-26T01:42:47.710Z,101655.38
2017-10-26T01:45:15.101Z,101654.45
2017-10-26T01:47:42.584Z,101656.58
2017-10-26T01:50:09.970Z,101653.03
2017-10-26T01:52:37.376Z,101651.48
2017-10-26T01:55:04.781Z,101652.55
2017-10-26T01:57:32.178Z,101662.06
2017-10-26T01:59:59.655Z,101672.83
2017-10-26T02:02:27.119Z,101669.09
2017-10-26T02:04:54.511Z,101666.95
2017-10-26T02:07:21.924Z,101654.95
2017-10-26T02:09:49.378Z,101648.52
2017-10-26T02:12:16.771Z,101659.89
2017-10-26T02:14:44.195Z,101666.26
2017-10-26T02:17:11.656Z,101663.31
2017-10-26T02:19:39.057Z,101667.41
2017-10-26T02:22:06.554Z,101665.61
2017-10-26T02:24:34.019Z,101658.00
2017-10-26T02:27:01.476Z,101645.50
2017-10-26T02:29:40.835Z,101645.17
2017-10-26T02:32:08.276Z,101640.16
2017-10-26T02:34:35.724Z,101636.66
2017-10-26T02:37:03.122Z,101635.56
2017-10-26T02:39:30.530Z,101624.19
2017-10-26T02:41:57.999Z,101622.56
2017-10-26T02:44:25.418Z,101627.49
2017-10-26T02:46:52.909Z,101647.38
2017-10-26T02:49:20.323Z,101656.90
2017-10-26T02:51:47.719Z,101659.82
2017-10-26T02:54:15.178Z,101658.62
2017-10-26T02:56:42.571Z,101649.29
2017-10-26T02:59:09.996Z,101655.81
2017-10-26T03:01:37.446Z,101657.45
2017-10-26T03:04:04.846Z,101657.50
2017-10-26T03:06:32.254Z,101640.47
2017-10-26T03:08:59.646Z,101642.50
2017-10-26T03:11:27.042Z,101655.54
2017-10-26T03:13:54.472Z,101661.80
2017-10-26T03:16:21.875Z,101657.63
2017-10-26T03:18:49.330Z,101654.14
2017-10-26T03:21:16.778Z,101657.88
2017-10-26T03:23:44.170Z,101662.52
2017-10-26T03:26:11.604Z,101662.74
2017-10-26T03:28:39.050Z,101646.84
2017-10-26T03:31:06.454Z,101644.37
2017-10-26T03:33:33.867Z,101638.05
2017-10-26T03:36:01.262Z,101636.55
2017-10-26T03:38:28.658Z,101632.02
2017-10-26T03:40:56.058Z,101632.38
2017-10-26T03:43:23.451Z,101651.20
2017-10-26T03:45:50.955Z,101645.41
2017-10-26T03:48:18.347Z,101632.56
2017-10-26T03:50:45.846Z,101643.47
2017-10-26T03:53:13.308Z,101645.22
2017-10-26T03:55:40.707Z,101653.17
2017-10-26T03:58:08.102Z,101651.32
2017-10-26T04:00:35.575Z,101660.47
2017-10-26T04:03:02.962Z,101653.47
2017-10-26T04:05:30.382Z,101657.52
2017-10-26T04:07:57.887Z,101659.91
2017-10-26T04:10:25.294Z,101655.03
2017-10-26T04:12:52.699Z,101651.59
2017-10-26T04:15:20.116Z,101659.55
2017-10-26T04:17:47.579Z,101671.78
2017-10-26T04:20:15.026Z,101668.16
2017-10-26T04:22:42.423Z,101663.73
2017-10-26T04:25:09.818Z,101650.97
2017-10-26T04:27:37.224Z,101648.15
2017-10-26T04:30:04.650Z,101639.92
2017-10-26T04:32:32.048Z,101630.58
2017-10-26T04:34:59.442Z,101630.58
2017-10-26T04:37:26.849Z,101637.28
2017-10-26T04:39:54.239Z,101643.02
2017-10-26T04:42:21.635Z,101633.62
2017-10-26T04:44:49.077Z,101623.44
2017-10-26T04:47:16.531Z,101613.58
2017-10-26T04:49:43.932Z,101613.37
2017-10-26T04:52:11.359Z,101613.41
2017-10-26T04:54:38.739Z,101625.34
2017-10-26T04:57:06.147Z,101634.25
2017-10-26T04:59:33.548Z,101629.64
2017-10-26T05:02:00.963Z,101626.57
2017-10-26T05:04:28.369Z,101616.69
2017-10-26T05:06:55.782Z,101636.89
2017-10-26T05:09:23.191Z,101636.59
2017-10-26T05:11:50.591Z,101638.94
2017-10-26T05:14:18.047Z,101645.72
2017-10-26T05:16:45.442Z,101640.19
2017-10-26T05:19:12.858Z,101635.38
2017-10-26T05:21:40.253Z,101628.73
2017-10-26T05:24:07.642Z,101630.73
2017-10-26T05:26:35.118Z,101626.02
2017-10-26T05:29:02.525Z,101613.66
2017-10-26T05:31:29.934Z,101609.23
2017-10-26T05:33:57.386Z,101614.14
2017-10-26T05:36:24.783Z,101623.02
2017-10-26T05:38:52.191Z,101598.84
2017-10-26T05:41:19.659Z,101601.25
2017-10-26T05:43:47.111Z,101597.88
2017-10-26T05:46:14.574Z,101591.93
2017-10-26T05:48:41.972Z,101593.99
2017-10-26T05:51:09.367Z,101592.11
2017-10-26T05:53:36.762Z,101593.31
2017-10-26T05:56:04.161Z,101602.25
2017-10-26T05:58:31.654Z,101599.98
2017-10-26T06:00:59.105Z,101602.23
2017-10-26T06:03:26.502Z,101595.72
2017-10-26T06:05:53.931Z,101595.19
2017-10-26T06:08:21.327Z,101606.06
2017-10-26T06:13:28.737Z,101596.14
2017-10-26T06:15:56.151Z,101593.28
2017-10-26T06:18:23.579Z,101590.98
2017-10-26T06:20:50.987Z,101588.03
2017-10-26T06:23:18.391Z,101584.34
2017-10-26T06:25:45.794Z,101568.74
2017-10-26T06:28:13.230Z,101576.58
2017-10-26T06:30:40.636Z,101579.78
2017-10-26T06:33:08.131Z,101579.65
2017-10-26T06:35:35.591Z,101596.00
2017-10-26T06:38:02.984Z,101592.18
2017-10-26T06:40:30.388Z,101598.21
2017-10-26T06:42:57.783Z,101625.88
2017-10-26T06:45:25.200Z,101618.97
2017-10-26T06:47:52.604Z,101621.08
2017-10-26T06:50:20.012Z,101621.19
2017-10-26T06:52:47.415Z,101621.92
2017-10-26T06:55:14.931Z,101610.53
2017-10-26T06:57:42.328Z,101607.08
2017-10-26T07:00:09.747Z,101613.34
2017-10-26T07:02:37.145Z,101606.23
2017-10-26T07:05:04.651Z,101614.11
2017-10-26T07:07:32.054Z,101620.12
2017-10-26T07:09:59.450Z,101630.56
2017-10-26T07:12:26.855Z,101620.30
2017-10-26T07:14:54.261Z,101616.31
2017-10-26T07:17:21.666Z,101627.58
2017-10-26T07:19:49.088Z,101614.80
2017-10-26T07:22:16.494Z,101613.63
2017-10-26T07:24:43.903Z,101609.79
2017-10-26T07:27:11.311Z,101623.59
2017-10-26T07:29:38.716Z,101630.47
2017-10-26T07:32:06.130Z,101628.10
2017-10-26T07:34:33.532Z,101629.64
2017-10-26T07:37:00.941Z,101633.76
2017-10-26T07:39:28.437Z,101626.78
2017-10-26T07:41:55.895Z,101625.08
2017-10-26T07:44:23.338Z,101628.34
2017-10-26T07:46:50.750Z,101629.47
2017-10-26T07:49:18.143Z,101616.52
2017-10-26T07:51:45.611Z,101608.75
2017-10-26T07:54:13.011Z,101602.48
2017-10-26T07:56:40.406Z,101599.89
2017-10-26T07:59:07.824Z,101588.95
2017-10-26T08:01:35.252Z,101588.72
2017-10-26T08:04:02.679Z,101589.17
2017-10-26T08:06:30.075Z,101591.71
2017-10-26T08:08:57.479Z,101598.30
2017-10-26T08:11:24.962Z,101587.66
2017-10-26T08:13:52.415Z,101584.89
2017-10-26T08:16:19.810Z,101577.81
2017-10-26T08:18:47.227Z,101582.45
2017-10-26T08:21:14.634Z,101579.48
2017-10-26T08:23:42.138Z,101582.78
2017-10-26T08:26:09.602Z,101590.61
2017-10-26T08:28:37.061Z,101586.20
2017-10-26T08:31:04.466Z,101579.91
2017-10-26T08:33:31.920Z,101569.42
2017-10-26T08:35:59.312Z,101560.89
2017-10-26T08:38:26.715Z,101552.39
2017-10-26T08:40:54.106Z,101560.52
2017-10-26T08:43:21.504Z,101570.89
2017-10-26T08:45:48.900Z,101569.83
2017-10-26T08:48:16.303Z,101582.48
2017-10-26T08:50:43.759Z,101574.08
2017-10-26T08:53:11.215Z,101584.09
2017-10-26T08:55:38.650Z,101580.29
2017-10-26T08:58:06.126Z,101586.56
2017-10-26T09:00:33.534Z,101577.70
2017-10-26T09:03:00.935Z,101574.00
2017-10-26T09:05:28.351Z,101581.11
2017-10-26T09:07:55.746Z,101574.75
2017-10-26T09:10:23.155Z,101581.23
2017-10-26T09:12:50.551Z,101574.59
2017-10-26T09:15:17.950Z,101572.30
2017-10-26T09:17:45.352Z,101577.45
2017-10-26T09:20:12.831Z,101577.38
2017-10-26T09:22:40.218Z,101579.27
2017-10-26T09:25:07.617Z,101575.53
2017-10-26T09:27:35.109Z,101579.87
2017-10-26T09:30:02.499Z,101577.91
2017-10-26T09:32:29.890Z,101584.62
2017-10-26T09:34:57.293Z,101579.13
2017-10-26T09:37:24.683Z,101577.13
2017-10-26T09:39:52.178Z,101573.64
2017-10-26T09:42:19.584Z,101581.72
2017-10-26T09:44:46.994Z,101576.83
2017-10-26T09:47:14.395Z,101581.97
2017-10-26T09:49:41.802Z,101577.25
2017-10-26T09:52:09.207Z,101566.45
2017-10-26T09:54:36.602Z,101573.46
2017-10-26T09:57:04.011Z,101576.93
2017-10-26T09:59:31.402Z,101572.09
2017-10-26T10:01:58.798Z,101567.26
2017-10-26T10:04:26.199Z,101568.59
2017-10-26T10:06:53.602Z,101567.20
2017-10-26T10:09:21.203Z,101566.42
2017-10-26T10:11:48.763Z,101561.73
2017-10-26T10:14:16.195Z,101565.36
2017-10-26T10:16:43.594Z,101566.92
2017-10-26T10:19:11.074Z,101553.52
2017-10-26T10:21:38.547Z,101549.48
2017-10-26T10:24:05.951Z,101558.36
2017-10-26T10:26:33.362Z,101554.33
2017-10-26T10:29:00.804Z,101548.34
2017-10-26T10:31:29.183Z,101554.27
2017-10-26T10:33:56.575Z,101554.86
2017-10-26T10:36:23.981Z,101550.97
2017-10-26T10:38:51.456Z,101557.51
2017-10-26T10:41:18.854Z,101550.86
2017-10-26T10:43:46.254Z,101547.66
2017-10-26T10:46:13.662Z,101540.55
2017-10-26T10:48:41.061Z,101535.45
2017-10-26T10:51:08.526Z,101543.64
2017-10-26T10:53:35.910Z,101544.67
2017-10-26T10:56:03.331Z,101539.20
2017-10-26T10:58:30.735Z,101543.69
2017-10-26T11:00:58.151Z,101539.86
2017-10-26T11:03:25.606Z,101544.41
2017-10-26T11:05:53.011Z,101536.73
2017-10-26T11:08:20.418Z,101527.59
2017-10-26T11:10:47.866Z,101529.81
2017-10-26T11:13:15.259Z,101528.61
2017-10-26T11:15:42.665Z,101526.30
2017-10-26T11:18:10.058Z,101513.41
2017-10-26T11:20:37.454Z,101510.88
2017-10-26T11:23:04.854Z,101512.78
2017-10-26T11:25:32.307Z,101510.14
2017-10-26T11:27:59.712Z,101506.09
2017-10-26T11:30:27.114Z,101518.64
2017-10-26T11:32:54.515Z,101515.86
2017-10-26T11:35:21.926Z,101508.52
2017-10-26T11:37:49.327Z,101502.75
2017-10-26T11:40:16.724Z,101500.91
2017-10-26T11:42:44.126Z,101495.43
2017-10-26T11:45:11.517Z,101499.70
2017-10-26T11:47:38.921Z,101497.09
2017-10-26T11:50:06.318Z,101497.06
2017-10-26T11:52:33.714Z,101502.81
2017-10-26T11:55:01.171Z,101493.41
2017-10-26T11:57:28.567Z,101503.08
2017-10-26T11:59:55.967Z,101500.27
2017-10-26T12:02:23.471Z,101501.58
2017-10-26T12:04:50.871Z,101490.78
2017-10-26T12:07:18.280Z,101503.84
2017-10-26T12:09:45.671Z,101501.17
2017-10-26T12:12:13.082Z,101493.41
2017-10-26T12:14:40.523Z,101483.25
2017-10-26T12:17:07.999Z,101492.55
2017-10-26T12:19:35.388Z,101496.25
2017-10-26T12:22:02.897Z,101496.16
2017-10-26T12:24:30.360Z,101491.24
2017-10-26T12:26:57.769Z,101498.49
2017-10-26T12:32:15.797Z,101493.89
2017-10-26T12:34:43.202Z,101491.14
2017-10-26T12:37:10.608Z,101492.34
2017-10-26T12:39:38.023Z,101485.84
2017-10-26T12:42:05.497Z,101482.14
2017-10-26T12:44:32.902Z,101482.75
2017-10-26T12:47:00.392Z,101486.10
2017-10-26T12:49:27.791Z,101485.58
2017-10-26T12:51:55.190Z,101472.77
2017-10-26T12:54:22.593Z,101473.71
2017-10-26T12:56:49.994Z,101468.81
2017-10-26T12:59:17.392Z,101467.66
2017-10-26T13:01:44.830Z,101466.52
2017-10-26T13:04:12.230Z,101472.88
2017-10-26T13:06:39.625Z,101476.86
2017-10-26T13:09:07.020Z,101469.84
2017-10-26T13:11:34.416Z,101482.69
2017-10-26T13:14:01.843Z,101478.02
2017-10-26T13:16:29.222Z,101484.83
2017-10-26T13:18:56.678Z,101487.17
2017-10-26T13:21:24.125Z,101490.66
2017-10-26T13:23:51.586Z,101495.94
2017-10-26T13:26:19.051Z,101490.42
2017-10-26T13:28:46.503Z,101493.75
2017-10-26T13:31:13.959Z,101484.42
2017-10-26T13:33:41.353Z,101483.05
2017-10-26T13:36:08.775Z,101482.89
2017-10-26T13:38:36.235Z,101483.60
2017-10-26T13:41:03.636Z,101476.06
2017-10-26T13:43:31.142Z,101475.34
2017-10-26T13:45:58.614Z,101488.15
2017-10-26T13:48:26.012Z,101475.90
2017-10-26T13:50:53.411Z,101467.91
2017-10-26T13:53:20.803Z,101468.00
2017-10-26T13:55:48.242Z,101466.34
2017-10-26T13:58:15.630Z,101464.20
2017-10-26T14:00:43.155Z,101465.27
2017-10-26T14:03:10.600Z,101466.76
2017-10-26T14:05:37.995Z,101455.19
2017-10-26T14:08:05.414Z,101450.42
2017-10-26T14:10:32.798Z,101455.75
2017-10-26T14:13:00.203Z,101457.35
2017-10-26T14:15:27.670Z,101451.88
2017-10-26T14:17:55.063Z,101458.31
2017-10-26T14:20:22.469Z,101453.05
2017-10-26T14:22:49.858Z,101452.45
2017-10-26T14:25:17.260Z,101447.83
2017-10-26T14:27:44.657Z,101448.50
2017-10-26T14:30:12.059Z,101445.41
2017-10-26T14:32:39.589Z,101452.38
2017-10-26T14:35:06.981Z,101437.48
2017-10-26T14:37:34.481Z,101433.13
2017-10-26T14:40:01.891Z,101433.63
2017-10-26T14:42:29.392Z,101436.61
2017-10-26T14:44:56.802Z,101431.66
2017-10-26T14:47:24.223Z,101430.30
2017-10-26T14:49:51.614Z,101428.22
2017-10-26T14:52:19.013Z,101421.56
2017-10-26T14:54:46.474Z,101428.52
2017-10-26T14:57:13.924Z,101433.86
2017-10-26T14:59:41.326Z,101435.72
2017-10-26T15:02:08.727Z,101436.28
2017-10-26T15:04:36.146Z,101427.76
2017-10-26T15:07:03.542Z,101432.18
2017-10-26T15:09:31.010Z,101425.77
2017-10-26T15:11:58.471Z,101430.37
2017-10-26T15:14:25.878Z,101428.64
2017-10-26T15:16:53.383Z,101423.63
2017-10-26T15:19:20.830Z,101427.06
2017-10-26T15:21:48.231Z,101432.11
2017-10-26T15:24:15.647Z,101431.06
2017-10-26T15:26:43.108Z,101426.92
2017-10-26T15:29:10.558Z,101430.78
2017-10-26T15:31:37.958Z,101418.16
2017-10-26T15:34:05.347Z,101411.67
2017-10-26T15:36:32.747Z,101406.22
2017-10-26T15:39:00.207Z,101402.01
2017-10-26T15:41:27.607Z,101397.05
2017-10-26T15:43:54.998Z,101399.47
2017-10-26T15:46:22.402Z,101399.95
2017-10-26T15:48:49.794Z,101398.63
2017-10-26T15:51:17.198Z,101397.41
2017-10-26T15:53:44.619Z,101403.64
2017-10-26T15:56:12.027Z,101404.54
2017-10-26T15:58:39.410Z,101394.59
2017-10-26T16:01:06.819Z,101394.42
2017-10-26T16:03:34.239Z,101391.41
2017-10-26T16:06:01.676Z,101395.05
2017-10-26T16:08:29.049Z,101397.32
2017-10-26T16:10:56.502Z,101390.20
2017-10-26T16:13:23.907Z,101391.80
2017-10-26T16:15:51.307Z,101393.81
2017-10-26T16:18:18.702Z,101389.53
2017-10-26T16:20:46.130Z,101403.00
2017-10-26T16:23:13.527Z,101396.68
2017-10-26T16:25:40.932Z,101399.48
2017-10-26T16:28:08.401Z,101407.70
2017-10-26T16:30:35.857Z,101396.98
2017-10-26T16:33:03.310Z,101391.67
2017-10-26T16:35:30.708Z,101401.05
2017-10-26T16:37:58.127Z,101403.66
2017-10-26T16:40:25.583Z,101403.00
2017-10-26T16:42:52.982Z,101403.64
2017-10-26T16:45:20.384Z,101400.94
2017-10-26T16:47:47.786Z,101395.86
2017-10-26T16:50:15.207Z,101408.70
2017-10-26T16:52:42.610Z,101405.19
2017-10-26T16:55:10.010Z,101401.84
2017-10-26T16:57:37.418Z,101397.43
2017-10-26T17:00:04.815Z,101392.95
2017-10-26T17:02:32.213Z,101388.72
2017-10-26T17:04:59.639Z,101391.28
2017-10-26T17:07:27.060Z,101380.77
2017-10-26T17:09:54.446Z,101384.92
2017-10-26T17:12:21.844Z,101390.81
2017-10-26T17:14:49.248Z,101386.52
2017-10-26T17:17:16.645Z,101386.40
2017-10-26T17:19:44.046Z,101378.41
2017-10-26T17:22:11.451Z,101373.22
2017-10-26T17:24:38.887Z,101365.63
2017-10-26T17:27:06.343Z,101361.57
2017-10-26T17:29:33.805Z,101366.41
2017-10-26T17:32:01.258Z,101370.62
2017-10-26T17:34:28.735Z,101364.41
2017-10-26T17:36:56.135Z,101370.14
2017-10-26T17:39:23.537Z,101371.14
2017-10-26T17:41:50.992Z,101374.73
2017-10-26T17:44:18.397Z,101368.22
2017-10-26T17:46:45.803Z,101365.96
2017-10-26T17:49:13.315Z,101361.34
2017-10-26T17:51:40.771Z,101358.45
2017-10-26T17:54:08.216Z,101356.77
2017-10-26T17:56:35.606Z,101355.97
2017-10-26T17:59:03.035Z,101357.18
2017-10-26T18:01:30.433Z,101350.72
2017-10-26T18:03:57.826Z,101358.66
2017-10-26T18:06:25.307Z,101363.40
2017-10-26T18:08:52.703Z,101369.35
2017-10-26T18:11:20.134Z,101358.48
2017-10-26T18:13:47.526Z,101351.23
2017-10-26T18:16:14.937Z,101362.91
2017-10-26T18:18:42.318Z,101367.05
2017-10-26T18:21:09.714Z,101368.11
2017-10-26T18:23:37.113Z,101370.04
2017-10-26T18:26:04.557Z,101372.22
2017-10-26T18:28:32.028Z,101361.77
2017-10-26T18:30:59.437Z,101375.91
2017-10-26T18:33:26.862Z,101375.39
2017-10-26T18:35:54.272Z,101380.90
2017-10-26T18:38:21.735Z,101367.42
2017-10-26T18:40:49.191Z,101371.56
2017-10-26T18:43:16.643Z,101361.84
2017-10-26T18:45:44.102Z,101365.84
2017-10-26T18:48:11.560Z,101364.34
2017-10-26T18:50:38.976Z,101368.86
2017-10-26T18:53:06.368Z,101367.78
2017-10-26T18:55:33.770Z,101366.04
2017-10-26T18:58:01.178Z,101363.73
2017-10-26T19:00:29.326Z,101364.39
2017-10-26T19:02:56.823Z,101362.71
2017-10-26T19:05:24.291Z,101365.77
2017-10-26T19:07:51.840Z,101370.01
2017-10-26T19:10:19.275Z,101375.56
2017-10-26T19:12:46.862Z,101367.61
2017-10-26T19:15:14.344Z,101370.60
2017-10-26T19:17:41.730Z,101376.00
2017-10-26T19:20:09.128Z,101370.97
2017-10-26T19:22:36.533Z,101374.60
2017-10-26T19:25:03.922Z,101373.61
2017-10-26T19:27:31.327Z,101369.56
2017-10-26T19:29:58.736Z,101372.75
2017-10-26T19:32:26.138Z,101370.88
2017-10-26T19:34:53.571Z,101376.75
2017-10-26T19:37:21.002Z,101374.58
2017-10-26T19:39:48.394Z,101375.02
2017-10-26T19:42:15.811Z,101371.03
2017-10-26T19:44:47.058Z,101375.23
2017-10-26T19:47:14.498Z,101364.53
2017-10-26T19:49:42.074Z,101360.00
2017-10-26T19:52:09.503Z,101359.83
2017-10-26T19:54:36.891Z,101359.41
2017-10-26T19:57:04.287Z,101358.91
2017-10-26T19:59:31.702Z,101360.53
2017-10-26T20:01:59.103Z,101360.34
2017-10-26T20:04:26.570Z,101360.13
2017-10-26T20:06:53.968Z,101347.03
2017-10-26T20:09:21.375Z,101358.77
2017-10-26T20:11:48.845Z,101341.32
2017-10-26T20:14:16.247Z,101354.20
2017-10-26T20:16:43.836Z,101358.11
2017-10-26T20:19:11.369Z,101363.60
2017-10-26T20:21:38.767Z,101363.83
2017-10-26T20:24:06.240Z,101360.97
2017-10-26T20:26:33.631Z,101362.13
2017-10-26T20:29:01.135Z,101360.33
2017-10-26T20:31:28.531Z,101369.58
2017-10-26T20:33:55.963Z,101356.64
2017-10-26T20:36:23.365Z,101344.66
2017-10-26T20:38:50.855Z,101333.78
2017-10-26T20:41:18.312Z,101331.83
2017-10-26T20:43:45.767Z,101325.42
2017-10-26T20:46:13.188Z,101320.12
2017-10-26T20:48:40.567Z,101328.61
2017-10-26T20:51:13.644Z,101330.92
2017-10-26T20:53:46.779Z,101335.77
2017-10-26T20:56:19.719Z,101346.08
2017-10-26T20:58:52.706Z,101348.37
2017-10-26T21:01:25.685Z,101345.66
2017-10-26T21:06:55.002Z,101340.63
2017-10-26T21:09:25.303Z,101335.41
2017-10-26T21:11:58.458Z,101334.49
2017-10-26T21:14:28.664Z,101333.86
2017-10-26T21:16:56.129Z,101334.98
2017-10-26T21:19:23.592Z,101334.31
2017-10-26T21:21:51.043Z,101335.35
2017-10-26T21:24:18.503Z,101339.34
2017-10-26T21:26:45.904Z,101333.44
2017-10-26T21:29:13.290Z,101333.47
2017-10-26T21:31:40.779Z,101337.38
2017-10-26T21:34:08.176Z,101318.23
2017-10-26T21:36:35.596Z,101323.06
2017-10-26T21:39:03.050Z,101317.02
2017-10-26T21:41:30.506Z,101318.14
2017-10-26T21:43:57.890Z,101313.97
2017-10-26T21:46:25.299Z,101305.81
2017-10-26T21:48:52.738Z,101307.46
2017-10-26T21:51:20.178Z,101301.95
2017-10-26T21:53:47.579Z,101308.16
2017-10-26T21:56:15.202Z,101300.76
2017-10-26T21:58:42.589Z,101299.30
2017-10-26T22:01:10.050Z,101288.91
2017-10-26T22:03:37.449Z,101287.23
2017-10-26T22:06:04.835Z,101284.37
2017-10-26T22:08:32.327Z,101283.26
2017-10-26T22:10:59.719Z,101286.73
2017-10-26T22:13:27.115Z,101286.47
2017-10-26T22:15:54.511Z,101296.09
2017-10-26T22:18:21.908Z,101284.37
2017-10-26T22:20:49.295Z,101280.06
2017-10-26T22:23:16.751Z,101278.35
2017-10-26T22:25:44.142Z,101282.75
2017-10-26T22:28:11.544Z,101281.49
2017-10-26T22:30:38.938Z,101273.33
2017-10-26T22:33:06.380Z,101275.72
2017-10-26T22:35:33.766Z,101276.38
2017-10-26T22:38:01.190Z,101277.79
2017-10-26T22:40:28.580Z,101281.52
2017-10-26T22:42:55.987Z,101287.63
2017-10-26T22:45:23.378Z,101274.94
2017-10-26T22:47:50.770Z,101269.30
2017-10-26T22:50:18.268Z,101265.94
2017-10-26T22:52:45.663Z,101262.89
2017-10-26T22:55:13.070Z,101258.28
2017-10-26T22:57:40.463Z,101254.59
2017-10-26T23:00:07.895Z,101268.19
2017-10-26T23:05:25.959Z,101252.67
2017-10-26T23:07:53.352Z,101261.94
2017-10-26T23:10:20.859Z,101251.78
2017-10-26T23:12:48.255Z,101254.37
2017-10-26T23:15:15.671Z,101248.67
2017-10-26T23:17:43.060Z,101242.19
2017-10-26T23:20:10.487Z,101250.63
2017-10-26T23:22:37.867Z,101248.83
2017-10-26T23:25:05.263Z,101242.75
2017-10-26T23:27:32.647Z,101251.13
2017-10-26T23:30:00.043Z,101242.25
2017-10-26T23:32:27.443Z,101242.47
2017-10-26T23:34:54.834Z,101243.31
2017-10-26T23:37:22.222Z,101239.38
2017-10-26T23:39:49.618Z,101238.02
2017-10-26T23:42:17.014Z,101246.50
2017-10-26T23:44:44.426Z,101244.22
2017-10-26T23:47:11.887Z,101242.47
2017-10-26T23:49:39.276Z,101248.00
2017-10-26T23:52:06.679Z,101250.63
2017-10-26T23:54:34.071Z,101251.92
2017-10-26T23:57:01.467Z,101244.86
2017-10-26T23:59:28.854Z,101240.16
